createdAt,value
2022-11-05T00:00:23.596Z,0.00
2022-11-05T00:01:26.403Z,0.00
2022-11-05T00:02:24.114Z,0.00
2022-11-05T00:03:26.327Z,0.00
2022-11-05T00:04:30.643Z,0.00
2022-11-05T00:05:26.120Z,0.00
2022-11-05T00:06:26.120Z,0.00
2022-11-05T00:07:25.633Z,0.00
2022-11-05T00:08:27.649Z,0.00
2022-11-05T00:09:26.170Z,0.00
2022-11-05T00:10:26.295Z,0.00
2022-11-05T00:11:29.462Z,0.00
2022-11-05T00:12:26.848Z,0.00
2022-11-05T00:13:29.040Z,0.00
2022-11-05T00:14:27.401Z,0.00
2022-11-05T00:15:27.700Z,0.00
2022-11-05T00:16:30.832Z,0.00
2022-11-05T00:17:28.218Z,0.00
2022-11-05T00:18:30.496Z,0.00
2022-11-05T00:19:29.736Z,0.00
2022-11-05T00:20:29.090Z,0.00
2022-11-05T00:21:32.098Z,0.00
2022-11-05T00:22:29.617Z,0.00
2022-11-05T00:23:30.802Z,0.00
2022-11-05T00:24:30.161Z,0.00
2022-11-05T00:25:30.460Z,0.00
2022-11-05T00:26:33.511Z,0.00
2022-11-05T00:27:31.027Z,0.00
2022-11-05T00:28:33.210Z,0.00
2022-11-05T00:29:33.407Z,0.00
2022-11-05T00:30:31.892Z,0.00
2022-11-05T00:31:32.205Z,0.00
2022-11-05T00:32:32.487Z,0.00
2022-11-05T00:33:34.677Z,0.00
2022-11-05T00:34:33.056Z,0.00
2022-11-05T00:35:33.361Z,0.00
2022-11-05T00:36:33.650Z,0.00
2022-11-05T00:37:35.840Z,0.00
2022-11-05T00:38:34.211Z,0.00
2022-11-05T00:39:36.404Z,0.00
2022-11-05T00:40:34.767Z,0.00
2022-11-05T00:41:35.094Z,0.00
2022-11-05T00:42:35.382Z,0.00
2022-11-05T00:43:37.570Z,0.00
2022-11-05T00:44:37.749Z,0.00
2022-11-05T00:45:36.264Z,0.00
2022-11-05T00:46:36.550Z,0.00
2022-11-05T00:47:38.734Z,0.00
2022-11-05T00:48:37.105Z,0.00
2022-11-05T00:49:39.285Z,0.00
2022-11-05T00:50:37.664Z,0.00
2022-11-05T00:51:40.803Z,0.00
2022-11-05T00:52:38.190Z,0.00
2022-11-05T00:53:40.370Z,0.00
2022-11-05T00:54:38.816Z,0.00
2022-11-05T00:55:38.993Z,0.00
2022-11-05T00:56:41.173Z,0.00
2022-11-05T00:57:39.544Z,0.00
2022-11-05T00:58:42.687Z,0.00
2022-11-05T00:59:43.576Z,0.00
2022-11-05T01:00:41.154Z,0.00
2022-11-05T01:01:43.621Z,0.00
2022-11-05T01:02:41.817Z,0.00
2022-11-05T01:03:45.071Z,0.00
2022-11-05T01:04:44.406Z,0.00
2022-11-05T01:05:42.723Z,0.00
2022-11-05T01:06:44.074Z,0.00
2022-11-05T01:07:43.287Z,0.00
2022-11-05T01:08:44.510Z,0.00
2022-11-05T01:09:43.839Z,0.00
2022-11-05T01:10:46.901Z,0.00
2022-11-05T01:11:45.129Z,0.00
2022-11-05T01:12:43.741Z,0.00
2022-11-05T01:13:44.049Z,0.00
2022-11-05T01:14:47.180Z,0.00
2022-11-05T01:15:44.640Z,0.00
2022-11-05T01:16:44.812Z,0.00
2022-11-05T01:17:45.925Z,0.00
2022-11-05T01:18:47.301Z,0.00
2022-11-05T01:19:46.510Z,0.00
2022-11-05T01:20:48.824Z,0.00
2022-11-05T01:21:48.049Z,0.00
2022-11-05T01:22:46.543Z,0.00
2022-11-05T01:23:46.845Z,0.00
2022-11-05T01:24:47.138Z,0.00
2022-11-05T01:25:50.809Z,0.00
2022-11-05T01:26:49.506Z,0.00
2022-11-05T01:27:48.007Z,0.00
2022-11-05T01:28:48.352Z,0.00
2022-11-05T01:29:50.480Z,0.00
2022-11-05T01:30:50.722Z,0.00
2022-11-05T01:31:52.390Z,0.00
2022-11-05T01:32:51.040Z,0.00
2022-11-05T01:33:51.728Z,0.00
2022-11-05T01:34:50.116Z,0.00
2022-11-05T01:35:53.268Z,0.00
2022-11-05T01:36:52.490Z,0.00
2022-11-05T01:37:52.680Z,0.00
2022-11-05T01:38:52.868Z,0.00
2022-11-05T01:39:53.559Z,0.00
2022-11-05T01:40:55.214Z,0.00
2022-11-05T01:41:53.231Z,0.00
2022-11-05T01:42:54.419Z,0.00
2022-11-05T01:43:54.634Z,0.00
2022-11-05T01:44:54.814Z,0.00
2022-11-05T01:45:55.954Z,0.00
2022-11-05T01:46:55.693Z,0.00
2022-11-05T01:47:55.871Z,0.00
2022-11-05T01:49:01.785Z,0.00
2022-11-05T01:49:55.571Z,0.00
2022-11-05T01:50:56.771Z,0.00
2022-11-05T01:51:56.133Z,0.00
2022-11-05T01:52:55.373Z,0.00
2022-11-05T01:53:57.559Z,0.00
2022-11-05T01:54:56.644Z,0.00
2022-11-05T01:55:59.583Z,0.00
2022-11-05T01:56:56.485Z,0.00
2022-11-05T01:57:58.673Z,0.00
2022-11-05T01:58:58.860Z,0.00
2022-11-05T01:59:57.381Z,0.00
2022-11-05T02:01:01.045Z,0.00
2022-11-05T02:01:59.062Z,0.00
2022-11-05T02:02:58.256Z,0.00
2022-11-05T02:04:00.403Z,0.00
2022-11-05T02:04:58.773Z,0.00
2022-11-05T02:06:01.925Z,0.00
2022-11-05T02:07:01.174Z,0.00
2022-11-05T02:07:59.540Z,0.00
2022-11-05T02:08:59.842Z,0.00
2022-11-05T02:10:00.135Z,0.00
2022-11-05T02:11:03.308Z,0.00
2022-11-05T02:12:01.831Z,0.00
2022-11-05T02:13:00.938Z,0.00
2022-11-05T02:14:03.112Z,0.00
2022-11-05T02:15:01.485Z,0.00
2022-11-05T02:16:04.637Z,0.00
2022-11-05T02:17:02.160Z,0.00
2022-11-05T02:18:02.293Z,0.00
2022-11-05T02:19:04.484Z,0.00
2022-11-05T02:20:02.852Z,0.00
2022-11-05T02:21:04.099Z,0.00
2022-11-05T02:22:04.462Z,0.00
2022-11-05T02:23:03.806Z,0.00
2022-11-05T02:24:05.986Z,0.00
2022-11-05T02:25:04.362Z,0.00
2022-11-05T02:26:04.718Z,0.00
2022-11-05T02:27:04.895Z,0.00
2022-11-05T02:28:07.085Z,0.00
2022-11-05T02:29:05.471Z,0.00
2022-11-05T02:30:05.832Z,0.00
2022-11-05T02:31:06.819Z,0.00
2022-11-05T02:32:07.301Z,0.00
2022-11-05T02:33:08.796Z,0.00
2022-11-05T02:34:06.775Z,0.00
2022-11-05T02:35:09.033Z,0.00
2022-11-05T02:36:10.125Z,0.00
2022-11-05T02:37:07.636Z,0.00
2022-11-05T02:38:07.941Z,0.00
2022-11-05T02:39:08.230Z,0.00
2022-11-05T02:40:10.415Z,0.00
2022-11-05T02:41:10.755Z,0.00
2022-11-05T02:42:09.129Z,0.00
2022-11-05T02:43:09.743Z,0.00
2022-11-05T02:44:11.612Z,0.00
2022-11-05T02:45:11.800Z,0.00
2022-11-05T02:46:12.297Z,0.00
2022-11-05T02:47:14.191Z,0.00
2022-11-05T02:48:12.868Z,0.00
2022-11-05T02:49:11.140Z,0.00
2022-11-05T02:50:14.753Z,0.00
2022-11-05T02:51:13.552Z,0.00
2022-11-05T02:52:14.491Z,0.00
2022-11-05T02:53:12.664Z,0.00
2022-11-05T02:54:12.715Z,0.00
2022-11-05T02:55:14.910Z,0.00
2022-11-05T02:56:14.289Z,0.00
2022-11-05T02:57:13.784Z,0.00
2022-11-05T02:58:13.777Z,0.00
2022-11-05T02:59:17.395Z,0.00
2022-11-05T03:00:14.290Z,0.00
2022-11-05T03:01:15.528Z,0.00
2022-11-05T03:02:15.972Z,0.00
2022-11-05T03:03:17.072Z,0.00
2022-11-05T03:04:17.260Z,0.00
2022-11-05T03:05:17.461Z,0.00
2022-11-05T03:06:19.083Z,0.00
2022-11-05T03:07:17.427Z,0.00
2022-11-05T03:08:18.668Z,0.00
2022-11-05T03:09:18.862Z,0.00
2022-11-05T03:10:19.048Z,0.00
2022-11-05T03:11:21.732Z,0.00
2022-11-05T03:12:19.016Z,0.00
2022-11-05T03:13:18.273Z,0.00
2022-11-05T03:14:19.518Z,0.00
2022-11-05T03:15:20.753Z,0.00
2022-11-05T03:16:22.122Z,0.00
2022-11-05T03:17:19.773Z,0.00
2022-11-05T03:18:19.615Z,0.00
2022-11-05T03:19:19.976Z,0.00
2022-11-05T03:20:20.142Z,0.00
2022-11-05T03:21:22.320Z,0.00
2022-11-05T03:22:20.681Z,0.00
2022-11-05T03:23:20.990Z,0.00
2022-11-05T03:24:21.281Z,0.00
2022-11-05T03:25:21.584Z,0.00
2022-11-05T03:26:24.816Z,0.00
2022-11-05T03:27:23.993Z,0.00
2022-11-05T03:28:23.175Z,0.00
2022-11-05T03:29:24.370Z,0.00
2022-11-05T03:30:25.028Z,0.00
2022-11-05T03:31:25.241Z,0.00
2022-11-05T03:32:25.391Z,0.00
2022-11-05T03:33:25.686Z,0.00
2022-11-05T03:34:25.760Z,0.00
2022-11-05T03:35:26.502Z,0.00
2022-11-05T03:36:26.718Z,0.00
2022-11-05T03:37:26.905Z,0.00
2022-11-05T03:38:27.073Z,0.00
2022-11-05T03:39:27.775Z,0.00
2022-11-05T03:40:27.954Z,0.00
2022-11-05T03:41:29.121Z,0.00
2022-11-05T03:42:28.352Z,0.00
2022-11-05T03:43:29.107Z,0.00
2022-11-05T03:44:27.385Z,0.00
2022-11-05T03:45:27.675Z,0.00
2022-11-05T03:46:30.806Z,0.00
2022-11-05T03:47:30.042Z,0.00
2022-11-05T03:48:28.700Z,0.00
2022-11-05T03:49:28.892Z,0.00
2022-11-05T03:50:29.255Z,0.00
2022-11-05T03:51:32.165Z,0.00
2022-11-05T03:52:31.563Z,0.00
2022-11-05T03:53:29.935Z,0.00
2022-11-05T03:54:30.236Z,0.00
2022-11-05T03:55:30.533Z,0.00
2022-11-05T03:56:34.167Z,0.00
2022-11-05T03:57:32.920Z,0.00
2022-11-05T03:58:31.411Z,0.00
2022-11-05T03:59:31.709Z,0.00
2022-11-05T04:00:31.993Z,0.00
2022-11-05T04:01:35.785Z,0.00
2022-11-05T04:02:32.704Z,0.00
2022-11-05T04:03:34.744Z,0.00
2022-11-05T04:04:34.923Z,0.00
2022-11-05T04:05:35.115Z,0.00
2022-11-05T04:06:35.810Z,0.00
2022-11-05T04:07:35.976Z,0.00
2022-11-05T04:08:34.459Z,0.00
2022-11-05T04:09:36.651Z,0.00
2022-11-05T04:10:35.006Z,0.00
2022-11-05T04:11:37.189Z,0.00
2022-11-05T04:12:35.568Z,0.00
2022-11-05T04:13:37.737Z,0.00
2022-11-05T04:14:37.949Z,0.00
2022-11-05T04:15:37.287Z,0.00
2022-11-05T04:16:38.615Z,0.00
2022-11-05T04:17:36.992Z,0.00
2022-11-05T04:18:39.176Z,0.00
2022-11-05T04:19:39.490Z,0.00
2022-11-05T04:20:37.888Z,0.00
2022-11-05T04:21:40.084Z,0.00
2022-11-05T04:22:38.446Z,0.00
2022-11-05T04:23:38.749Z,0.00
2022-11-05T04:24:39.050Z,0.00
2022-11-05T04:25:41.231Z,0.00
2022-11-05T04:26:41.419Z,0.00
2022-11-05T04:27:41.608Z,0.00
2022-11-05T04:28:41.808Z,0.00
2022-11-05T04:29:40.548Z,0.00
2022-11-05T04:30:42.741Z,0.00
2022-11-05T04:31:41.220Z,0.00
2022-11-05T04:32:41.397Z,0.00
2022-11-05T04:33:41.750Z,0.00
2022-11-05T04:34:43.863Z,0.00
2022-11-05T04:35:42.251Z,0.00
2022-11-05T04:36:43.511Z,0.00
2022-11-05T04:37:42.871Z,0.00
2022-11-05T04:38:43.162Z,0.00
2022-11-05T04:39:45.455Z,0.00
2022-11-05T04:40:45.585Z,0.00
2022-11-05T04:41:46.493Z,0.00
2022-11-05T04:42:44.372Z,0.00
2022-11-05T04:43:44.672Z,0.00
2022-11-05T04:44:44.975Z,0.00
2022-11-05T04:45:48.109Z,0.00
2022-11-05T04:46:47.476Z,0.00
2022-11-05T04:47:46.764Z,0.00
2022-11-05T04:48:46.923Z,0.00
2022-11-05T04:49:47.077Z,0.00
2022-11-05T04:50:49.112Z,0.00
2022-11-05T04:51:48.835Z,0.00
2022-11-05T04:52:49.727Z,0.00
2022-11-05T04:53:48.466Z,0.00
2022-11-05T04:54:49.690Z,0.00
2022-11-05T04:55:49.886Z,0.00
2022-11-05T04:56:49.846Z,0.00
2022-11-05T04:57:49.648Z,0.00
2022-11-05T04:58:49.798Z,0.00
2022-11-05T04:59:51.172Z,0.00
2022-11-05T05:00:49.582Z,0.00
2022-11-05T05:01:51.968Z,0.00
2022-11-05T05:02:51.649Z,0.00
2022-11-05T05:03:52.444Z,0.00
2022-11-05T05:04:51.756Z,0.00
2022-11-05T05:05:53.906Z,0.00
2022-11-05T05:06:52.354Z,0.00
2022-11-05T05:07:51.716Z,0.00
2022-11-05T05:08:52.956Z,0.00
2022-11-05T05:09:54.202Z,0.00
2022-11-05T05:10:53.504Z,0.00
2022-11-05T05:11:54.826Z,0.00
2022-11-05T05:12:53.190Z,0.00
2022-11-05T05:13:55.377Z,0.00
2022-11-05T05:14:55.727Z,0.00
2022-11-05T05:15:54.091Z,0.00
2022-11-05T05:16:57.757Z,0.00
2022-11-05T05:17:56.510Z,0.00
2022-11-05T05:18:56.693Z,0.00
2022-11-05T05:19:56.885Z,0.00
2022-11-05T05:20:57.536Z,0.00
2022-11-05T05:21:58.595Z,0.00
2022-11-05T05:22:57.947Z,0.00
2022-11-05T05:23:56.568Z,0.00
2022-11-05T05:24:58.750Z,0.00
2022-11-05T05:25:57.126Z,0.00
2022-11-05T05:26:58.384Z,0.00
2022-11-05T05:27:57.727Z,0.00
2022-11-05T05:28:58.047Z,0.00
2022-11-05T05:30:00.236Z,0.00
2022-11-05T05:30:58.856Z,0.00
2022-11-05T05:32:02.404Z,0.00
2022-11-05T05:32:59.175Z,0.00
2022-11-05T05:34:01.371Z,0.00
2022-11-05T05:35:01.559Z,0.00
2022-11-05T05:36:04.591Z,0.00
2022-11-05T05:37:03.900Z,0.00
2022-11-05T05:38:00.670Z,0.00
2022-11-05T05:39:02.866Z,0.00
2022-11-05T05:40:03.063Z,0.00
2022-11-05T05:41:03.245Z,0.00
2022-11-05T05:42:03.461Z,0.00
2022-11-05T05:43:02.197Z,0.00
2022-11-05T05:44:03.475Z,0.00
2022-11-05T05:45:04.697Z,0.00
2022-11-05T05:46:03.037Z,0.00
2022-11-05T05:47:06.699Z,0.00
2022-11-05T05:48:03.599Z,0.00
2022-11-05T05:49:11.249Z,0.00
2022-11-05T05:50:06.983Z,0.00
2022-11-05T05:51:04.478Z,0.00
2022-11-05T05:52:07.635Z,0.00
2022-11-05T05:53:05.018Z,0.00
2022-11-05T05:54:07.212Z,0.00
2022-11-05T05:55:07.488Z,0.00
2022-11-05T05:56:05.862Z,0.00
2022-11-05T05:57:07.126Z,4.00
2022-11-05T05:58:06.485Z,4.00
2022-11-05T05:59:06.769Z,0.00
2022-11-05T06:00:09.913Z,4.00
2022-11-05T06:01:07.315Z,4.00
2022-11-05T06:02:10.532Z,4.00
2022-11-05T06:03:08.050Z,8.00
2022-11-05T06:04:08.231Z,8.00
2022-11-05T06:05:10.409Z,8.00
2022-11-05T06:06:08.780Z,8.00
2022-11-05T06:07:10.592Z,12.00
2022-11-05T06:08:09.337Z,16.00
2022-11-05T06:09:11.524Z,20.00
2022-11-05T06:10:11.782Z,24.00
2022-11-05T06:11:11.100Z,28.00
2022-11-05T06:12:13.250Z,32.00
2022-11-05T06:13:12.724Z,40.00
2022-11-05T06:14:11.099Z,40.00
2022-11-05T06:15:13.262Z,52.00
2022-11-05T06:16:11.757Z,60.00
2022-11-05T06:17:15.388Z,68.00
2022-11-05T06:18:12.169Z,80.00
2022-11-05T06:19:14.352Z,92.00
2022-11-05T06:20:12.728Z,104.00
2022-11-05T06:21:13.053Z,116.00
2022-11-05T06:22:15.335Z,132.00
2022-11-05T06:23:13.871Z,148.00
2022-11-05T06:24:15.925Z,164.00
2022-11-05T06:25:14.313Z,184.00
2022-11-05T06:26:14.640Z,204.00
2022-11-05T06:27:17.427Z,228.00
2022-11-05T06:28:15.206Z,252.00
2022-11-05T06:29:15.528Z,272.00
2022-11-05T06:30:17.720Z,296.00
2022-11-05T06:31:16.107Z,320.00
2022-11-05T06:32:18.754Z,352.00
2022-11-05T06:33:16.693Z,388.00
2022-11-05T06:34:16.896Z,436.00
2022-11-05T06:35:17.225Z,484.00
2022-11-05T06:36:19.401Z,520.00
2022-11-05T06:37:20.100Z,548.00
2022-11-05T06:38:18.135Z,556.00
2022-11-05T06:39:19.365Z,576.00
2022-11-05T06:40:19.784Z,604.00
2022-11-05T06:41:20.934Z,628.00
2022-11-05T06:42:22.615Z,644.00
2022-11-05T06:43:19.653Z,672.00
2022-11-05T06:44:19.974Z,736.00
2022-11-05T06:45:20.305Z,804.00
2022-11-05T06:46:21.513Z,892.00
2022-11-05T06:47:23.817Z,968.00
2022-11-05T06:48:24.004Z,1048.00
2022-11-05T06:49:21.557Z,1112.00
2022-11-05T06:50:22.913Z,1156.00
2022-11-05T06:51:23.072Z,1180.00
2022-11-05T06:52:24.426Z,1244.00
2022-11-05T06:53:24.619Z,1364.00
2022-11-05T06:54:24.809Z,1492.00
2022-11-05T06:55:24.232Z,1632.00
2022-11-05T06:56:24.581Z,1880.00
2022-11-05T06:57:25.800Z,2168.00
2022-11-05T06:58:25.981Z,2236.00
2022-11-05T06:59:24.397Z,2100.00
2022-11-05T07:00:24.778Z,1800.00
2022-11-05T07:01:26.238Z,1596.00
2022-11-05T07:02:28.173Z,1640.00
2022-11-05T07:03:28.738Z,1652.00
2022-11-05T07:04:25.925Z,1764.00
2022-11-05T07:05:28.116Z,1928.00
2022-11-05T07:06:26.406Z,1908.00
2022-11-05T07:07:27.688Z,2024.00
2022-11-05T07:08:28.934Z,2124.00
2022-11-05T07:09:29.130Z,2244.00
2022-11-05T07:10:28.638Z,2432.00
2022-11-05T07:11:28.400Z,2604.00
2022-11-05T07:12:29.292Z,2664.00
2022-11-05T07:13:28.583Z,2600.00
2022-11-05T07:14:28.788Z,2560.00
2022-11-05T07:15:29.993Z,2644.00
2022-11-05T07:16:29.400Z,2856.00
2022-11-05T07:17:31.552Z,3116.00
2022-11-05T07:18:29.835Z,3228.00
2022-11-05T07:19:30.182Z,3328.00
2022-11-05T07:20:34.216Z,3472.00
2022-11-05T07:21:30.743Z,3620.00
2022-11-05T07:22:31.924Z,3744.00
2022-11-05T07:23:33.105Z,3744.00
2022-11-05T07:24:31.721Z,3740.00
2022-11-05T07:25:31.935Z,3720.00
2022-11-05T07:26:34.685Z,3764.00
2022-11-05T07:27:34.461Z,3896.00
2022-11-05T07:28:32.866Z,4140.00
2022-11-05T07:29:33.206Z,4600.00
2022-11-05T07:30:33.543Z,5972.00
2022-11-05T07:31:35.341Z,6524.00
2022-11-05T07:32:36.068Z,5904.00
2022-11-05T07:33:36.745Z,5996.00
2022-11-05T07:34:34.637Z,6624.00
2022-11-05T07:35:36.008Z,6676.00
2022-11-05T07:36:35.269Z,6824.00
2022-11-05T07:37:37.463Z,6892.00
2022-11-05T07:38:35.864Z,6856.00
2022-11-05T07:39:36.208Z,6708.00
2022-11-05T07:40:36.687Z,6672.00
2022-11-05T07:41:38.768Z,6644.00
2022-11-05T07:42:38.942Z,6684.00
2022-11-05T07:43:37.474Z,6660.00
2022-11-05T07:44:37.815Z,6792.00
2022-11-05T07:45:40.000Z,6940.00
2022-11-05T07:46:38.409Z,7052.00
2022-11-05T07:47:40.601Z,6996.00
2022-11-05T07:48:39.018Z,6856.00
2022-11-05T07:49:39.361Z,6000.00
2022-11-05T07:50:39.698Z,7156.00
2022-11-05T07:51:43.573Z,8284.00
2022-11-05T07:52:42.271Z,8468.00
2022-11-05T07:53:45.274Z,8808.00
2022-11-05T07:54:40.971Z,8916.00
2022-11-05T07:55:43.162Z,9944.00
2022-11-05T07:56:41.580Z,9952.00
2022-11-05T07:57:43.784Z,9728.00
2022-11-05T07:58:42.214Z,9548.00
2022-11-05T07:59:44.365Z,9488.00
2022-11-05T08:00:44.716Z,9760.00
2022-11-05T08:01:43.260Z,9868.00
2022-11-05T08:02:45.330Z,9336.00
2022-11-05T08:03:43.645Z,10660.00
2022-11-05T08:04:45.785Z,10532.00
2022-11-05T08:05:46.223Z,9704.00
2022-11-05T08:06:44.480Z,9696.00
2022-11-05T08:07:46.674Z,9208.00
2022-11-05T08:08:45.087Z,8728.00
2022-11-05T08:09:45.428Z,8560.00
2022-11-05T08:10:47.626Z,8164.00
2022-11-05T08:11:47.835Z,7868.00
2022-11-05T08:12:49.469Z,7668.00
2022-11-05T08:13:46.674Z,8140.00
2022-11-05T08:14:46.987Z,7812.00
2022-11-05T08:15:49.163Z,7640.00
2022-11-05T08:16:47.575Z,7148.00
2022-11-05T08:17:48.963Z,8956.00
2022-11-05T08:18:48.254Z,9796.00
2022-11-05T08:19:48.468Z,9432.00
2022-11-05T08:20:48.835Z,7096.00
2022-11-05T08:21:51.034Z,5172.00
2022-11-05T08:22:49.323Z,5776.00
2022-11-05T08:23:49.669Z,5208.00
2022-11-05T08:24:50.004Z,6020.00
2022-11-05T08:25:50.376Z,6528.00
2022-11-05T08:26:52.594Z,7684.00
2022-11-05T08:27:53.680Z,9572.00
2022-11-05T08:28:51.235Z,10920.00
2022-11-05T08:29:54.878Z,11864.00
2022-11-05T08:30:52.742Z,12556.00
2022-11-05T08:31:53.154Z,11532.00
2022-11-05T08:32:54.310Z,11216.00
2022-11-05T08:33:57.136Z,10608.00
2022-11-05T08:34:55.919Z,9952.00
2022-11-05T08:35:53.354Z,10268.00
2022-11-05T08:36:57.001Z,11232.00
2022-11-05T08:37:53.819Z,11456.00
2022-11-05T08:38:56.008Z,10980.00
2022-11-05T08:39:54.320Z,11200.00
2022-11-05T08:40:57.958Z,11448.00
2022-11-05T08:41:55.777Z,11604.00
2022-11-05T08:42:56.157Z,10584.00
2022-11-05T08:43:56.355Z,8676.00
2022-11-05T08:44:56.710Z,9036.00
2022-11-05T08:45:57.940Z,9972.00
2022-11-05T08:46:57.202Z,10460.00
2022-11-05T08:47:58.441Z,10276.00
2022-11-05T08:48:58.632Z,10400.00
2022-11-05T08:49:58.013Z,10476.00
2022-11-05T08:50:59.239Z,10812.00
2022-11-05T08:51:59.591Z,11584.00
2022-11-05T08:52:57.892Z,12848.00
2022-11-05T08:54:00.091Z,14028.00
2022-11-05T08:55:00.272Z,15500.00
2022-11-05T08:55:59.483Z,16800.00
2022-11-05T08:56:59.978Z,17504.00
2022-11-05T08:57:59.313Z,17952.00
2022-11-05T08:58:59.538Z,16032.00
2022-11-05T09:00:01.736Z,13788.00
2022-11-05T09:01:04.973Z,11964.00
2022-11-05T09:02:00.541Z,10060.00
2022-11-05T09:03:02.482Z,9040.00
2022-11-05T09:04:00.908Z,9512.00
2022-11-05T09:05:01.234Z,9964.00
2022-11-05T09:06:01.476Z,11232.00
2022-11-05T09:07:05.120Z,11184.00
2022-11-05T09:08:03.855Z,11212.00
2022-11-05T09:09:02.279Z,11248.00
2022-11-05T09:10:04.462Z,12348.00
2022-11-05T09:11:02.765Z,13392.00
2022-11-05T09:12:12.415Z,11712.00
2022-11-05T09:13:05.769Z,11076.00
2022-11-05T09:14:03.451Z,14644.00
2022-11-05T09:15:03.690Z,18880.00
2022-11-05T09:16:03.927Z,21856.00
2022-11-05T09:17:07.585Z,21696.00
2022-11-05T09:18:04.393Z,22720.00
2022-11-05T09:19:06.584Z,19936.00
2022-11-05T09:20:04.884Z,15756.00
2022-11-05T09:21:05.115Z,15520.00
2022-11-05T09:22:07.390Z,18016.00
2022-11-05T09:23:05.682Z,19968.00
2022-11-05T09:24:05.923Z,21280.00
2022-11-05T09:25:07.907Z,20352.00
2022-11-05T09:26:08.087Z,18016.00
2022-11-05T09:27:09.121Z,16840.00
2022-11-05T09:28:09.937Z,16544.00
2022-11-05T09:29:13.190Z,14964.00
2022-11-05T09:30:10.537Z,13208.00
2022-11-05T09:31:09.872Z,10864.00
2022-11-05T09:32:10.180Z,9008.00
2022-11-05T09:33:10.531Z,7520.00
2022-11-05T09:34:08.858Z,6304.00
2022-11-05T09:35:11.051Z,5520.00
2022-11-05T09:36:09.337Z,5112.00
2022-11-05T09:37:12.132Z,5084.00
2022-11-05T09:38:11.729Z,5076.00
2022-11-05T09:39:10.255Z,4900.00
2022-11-05T09:40:12.487Z,4476.00
2022-11-05T09:41:12.627Z,4084.00
2022-11-05T09:42:13.797Z,4016.00
2022-11-05T09:43:13.302Z,4296.00
2022-11-05T09:44:11.731Z,4752.00
2022-11-05T09:45:12.066Z,5092.00
2022-11-05T09:46:12.408Z,5128.00
2022-11-05T09:47:13.602Z,5124.00
2022-11-05T09:48:14.949Z,5124.00
2022-11-05T09:49:15.107Z,4988.00
2022-11-05T09:50:13.639Z,4876.00
2022-11-05T09:51:16.836Z,5140.00
2022-11-05T09:52:15.322Z,6220.00
2022-11-05T09:53:16.501Z,7008.00
2022-11-05T09:54:16.689Z,7140.00
2022-11-05T09:55:15.227Z,7056.00
2022-11-05T09:56:15.573Z,7236.00
2022-11-05T09:57:17.765Z,8504.00
2022-11-05T09:58:18.110Z,9688.00
2022-11-05T09:59:16.511Z,10076.00
2022-11-05T10:00:17.091Z,10360.00
2022-11-05T10:01:19.646Z,9920.00
2022-11-05T10:02:19.304Z,8836.00
2022-11-05T10:03:19.418Z,7836.00
2022-11-05T10:04:17.847Z,7212.00
2022-11-05T10:05:18.116Z,6516.00
2022-11-05T10:06:18.303Z,5552.00
2022-11-05T10:07:20.544Z,4768.00
2022-11-05T10:08:20.691Z,4384.00
2022-11-05T10:09:19.220Z,4188.00
2022-11-05T10:10:19.563Z,4172.00
2022-11-05T10:11:19.898Z,4132.00
2022-11-05T10:12:20.240Z,4092.00
2022-11-05T10:13:22.448Z,4200.00
2022-11-05T10:14:20.863Z,4364.00
2022-11-05T10:15:21.082Z,4572.00
2022-11-05T10:16:21.423Z,4888.00
2022-11-05T10:17:23.601Z,5164.00
2022-11-05T10:18:22.006Z,5292.00
2022-11-05T10:19:22.355Z,5304.00
2022-11-05T10:20:24.571Z,5260.00
2022-11-05T10:21:44.356Z,5332.00
2022-11-05T10:22:27.136Z,5752.00
2022-11-05T10:23:23.579Z,6192.00
2022-11-05T10:24:23.920Z,6652.00
2022-11-05T10:25:24.258Z,6696.00
2022-11-05T10:26:24.595Z,6384.00
2022-11-05T10:27:27.736Z,6100.00
2022-11-05T10:28:25.154Z,5884.00
2022-11-05T10:29:28.299Z,5788.00
2022-11-05T10:30:26.630Z,5940.00
2022-11-05T10:31:31.505Z,6232.00
2022-11-05T10:32:29.208Z,6464.00
2022-11-05T10:33:27.362Z,6768.00
2022-11-05T10:34:26.763Z,7180.00
2022-11-05T10:35:27.109Z,7068.00
2022-11-05T10:36:28.354Z,6616.00
2022-11-05T10:37:29.638Z,5948.00
2022-11-05T10:38:28.057Z,5348.00
2022-11-05T10:39:28.276Z,4940.00
2022-11-05T10:40:28.617Z,4596.00
2022-11-05T10:41:30.914Z,4484.00
2022-11-05T10:42:31.149Z,4596.00
2022-11-05T10:43:31.340Z,5352.00
2022-11-05T10:44:29.752Z,6280.00
2022-11-05T10:45:30.094Z,7644.00
2022-11-05T10:46:31.235Z,8784.00
2022-11-05T10:47:32.676Z,10700.00
2022-11-05T10:48:33.091Z,12576.00
2022-11-05T10:49:32.996Z,17568.00
2022-11-05T10:50:31.667Z,25280.00
2022-11-05T10:51:32.811Z,32320.00
2022-11-05T10:52:34.158Z,15652.00
2022-11-05T10:53:32.455Z,20000.00
2022-11-05T10:54:32.684Z,11060.00
2022-11-05T10:55:33.881Z,10192.00
2022-11-05T10:56:35.741Z,6508.00
2022-11-05T10:57:36.420Z,4968.00
2022-11-05T10:58:33.845Z,4496.00
2022-11-05T10:59:34.189Z,3596.00
2022-11-05T11:00:35.377Z,3060.00
2022-11-05T11:01:35.854Z,3324.00
2022-11-05T11:02:36.904Z,3728.00
2022-11-05T11:03:37.044Z,4000.00
2022-11-05T11:04:38.186Z,3856.00
2022-11-05T11:05:37.422Z,3528.00
2022-11-05T11:06:38.631Z,3324.00
2022-11-05T11:07:38.344Z,3352.00
2022-11-05T11:08:36.751Z,3556.00
2022-11-05T11:09:37.094Z,3920.00
2022-11-05T11:10:37.430Z,4612.00
2022-11-05T11:11:38.755Z,5404.00
2022-11-05T11:12:41.254Z,6812.00
2022-11-05T11:13:40.189Z,7944.00
2022-11-05T11:14:38.580Z,8796.00
2022-11-05T11:15:40.823Z,9348.00
2022-11-05T11:16:39.275Z,10068.00
2022-11-05T11:17:41.417Z,10696.00
2022-11-05T11:18:40.437Z,11252.00
2022-11-05T11:19:40.140Z,11956.00
2022-11-05T11:20:40.429Z,12672.00
2022-11-05T11:21:44.046Z,12420.00
2022-11-05T11:22:42.774Z,10720.00
2022-11-05T11:23:41.194Z,8784.00
2022-11-05T11:24:43.369Z,7532.00
2022-11-05T11:25:43.527Z,6728.00
2022-11-05T11:26:44.645Z,6360.00
2022-11-05T11:27:42.314Z,6160.00
2022-11-05T11:28:44.507Z,6012.00
2022-11-05T11:29:49.103Z,6260.00
2022-11-05T11:30:43.266Z,6716.00
2022-11-05T11:31:45.487Z,6936.00
2022-11-05T11:32:45.647Z,6416.00
2022-11-05T11:33:45.831Z,6352.00
2022-11-05T11:34:44.477Z,7112.00
2022-11-05T11:35:46.681Z,9152.00
2022-11-05T11:36:45.342Z,14328.00
2022-11-05T11:37:46.370Z,14220.00
2022-11-05T11:38:45.705Z,16036.00
2022-11-05T11:39:47.848Z,36544.00
2022-11-05T11:40:46.267Z,23104.00
2022-11-05T11:41:48.530Z,22592.00
2022-11-05T11:42:47.799Z,11912.00
2022-11-05T11:43:47.088Z,11800.00
2022-11-05T11:44:49.268Z,14564.00
2022-11-05T11:45:47.571Z,31232.00
2022-11-05T11:46:48.777Z,25280.00
2022-11-05T11:47:48.083Z,15956.00
2022-11-05T11:48:48.319Z,16712.00
2022-11-05T11:49:50.080Z,18656.00
2022-11-05T11:50:50.760Z,22336.00
2022-11-05T11:51:50.355Z,42112.00
2022-11-05T11:52:49.482Z,43104.00
2022-11-05T11:53:49.725Z,28384.00
2022-11-05T11:54:49.942Z,38304.00
2022-11-05T11:55:52.138Z,29632.00
2022-11-05T11:56:51.413Z,26560.00
2022-11-05T11:57:52.665Z,24640.00
2022-11-05T11:58:50.958Z,26912.00
2022-11-05T12:00:52.419Z,33536.00
2022-11-05T12:01:54.693Z,26240.00
2022-11-05T12:02:53.904Z,22304.00
2022-11-05T12:03:53.279Z,21216.00
2022-11-05T12:04:52.559Z,22176.00
2022-11-05T12:05:52.920Z,20608.00
2022-11-05T12:06:56.568Z,16672.00
2022-11-05T12:07:53.387Z,13880.00
2022-11-05T12:09:00.574Z,11752.00
2022-11-05T12:09:54.954Z,8804.00
2022-11-05T12:10:54.242Z,11864.00
2022-11-05T12:11:58.915Z,19392.00
2022-11-05T12:12:56.617Z,22624.00
2022-11-05T12:13:55.033Z,18400.00
2022-11-05T12:14:55.268Z,33664.00
2022-11-05T12:15:55.494Z,15212.00
2022-11-05T12:16:56.646Z,30112.00
2022-11-05T12:17:58.007Z,21280.00
2022-11-05T12:18:56.307Z,11516.00
2022-11-05T12:19:56.528Z,9804.00
2022-11-05T12:20:58.395Z,13236.00
2022-11-05T12:21:59.896Z,11372.00
2022-11-05T12:23:00.575Z,9848.00
2022-11-05T12:23:59.314Z,9456.00
2022-11-05T12:24:57.849Z,10756.00
2022-11-05T12:25:58.197Z,9032.00
2022-11-05T12:27:01.026Z,10684.00
2022-11-05T12:28:00.771Z,12420.00
2022-11-05T12:29:19.180Z,10988.00
2022-11-05T12:30:00.300Z,8168.00
2022-11-05T12:30:59.875Z,7072.00
2022-11-05T12:31:59.894Z,6840.00
2022-11-05T12:33:02.147Z,6768.00
2022-11-05T12:34:03.750Z,6952.00
2022-11-05T12:35:02.474Z,7008.00
2022-11-05T12:36:01.049Z,7132.00
2022-11-05T12:37:04.188Z,7180.00
2022-11-05T12:38:03.416Z,7156.00
2022-11-05T12:39:04.040Z,7360.00
2022-11-05T12:40:03.141Z,7376.00
2022-11-05T12:41:04.496Z,7272.00